createdAt,value
2022-07-28T00:04:11.698Z,59.40
2022-07-28T00:19:16.305Z,59.70
2022-07-28T00:34:20.688Z,60.20
2022-07-28T00:49:31.100Z,60.40
2022-07-28T01:04:35.965Z,60.50
2022-07-28T01:19:45.840Z,60.70
2022-07-28T01:34:57.259Z,61.20
2022-07-28T01:50:05.875Z,61.60
2022-07-28T02:05:12.322Z,62.20
2022-07-28T02:20:18.872Z,62.50
2022-07-28T02:35:32.045Z,62.80
2022-07-28T02:50:40.898Z,62.60
2022-07-28T03:05:46.008Z,62.30
2022-07-28T03:20:50.398Z,63.10
2022-07-28T03:35:59.129Z,63.00
2022-07-28T03:51:03.779Z,63.30
2022-07-28T04:06:08.239Z,63.20
2022-07-28T04:21:12.616Z,63.60
2022-07-28T04:36:17.422Z,64.10
2022-07-28T04:51:23.121Z,64.40
2022-07-28T05:06:27.586Z,64.80
2022-07-28T05:21:32.028Z,64.70
2022-07-28T05:36:36.922Z,65.30
2022-07-28T05:51:42.008Z,65.30
2022-07-28T06:06:46.507Z,66.10
2022-07-28T06:21:52.398Z,65.60
2022-07-28T06:36:56.801Z,65.40
2022-07-28T06:52:01.919Z,65.80
2022-07-28T07:07:14.986Z,66.40
2022-07-28T07:22:21.737Z,66.10
2022-07-28T07:37:26.179Z,66.30
2022-07-28T07:52:30.680Z,66.40
2022-07-28T08:07:35.182Z,65.20
2022-07-28T08:22:49.993Z,66.20
2022-07-28T08:37:54.532Z,64.30
2022-07-28T08:53:00.212Z,65.20
2022-07-28T09:08:04.936Z,64.30
2022-07-28T09:23:42.188Z,65.20
2022-07-28T09:38:42.204Z,63.20
2022-07-28T09:53:46.933Z,62.50
2022-07-28T10:08:52.667Z,62.70
2022-07-28T10:23:58.441Z,65.40
2022-07-28T10:39:11.199Z,58.20
2022-07-28T10:54:25.188Z,58.90
2022-07-28T11:09:29.755Z,56.40
2022-07-28T11:25:19.062Z,57.10
2022-07-28T11:40:34.940Z,58.50
2022-07-28T11:55:55.624Z,56.20
2022-07-28T12:11:03.939Z,56.30
2022-07-28T12:26:10.083Z,56.10
2022-07-28T12:41:16.950Z,55.80
2022-07-28T12:56:21.404Z,53.80
2022-07-28T13:11:47.756Z,55.80
2022-07-28T13:26:52.505Z,51.10
2022-07-28T13:41:59.082Z,53.40
2022-07-28T13:57:03.829Z,50.90
2022-07-28T14:12:10.903Z,50.40
2022-07-28T14:27:15.700Z,50.90
2022-07-28T14:42:20.369Z,51.40
2022-07-28T14:57:50.366Z,47.80
2022-07-28T15:12:50.710Z,49.60
2022-07-28T15:27:56.182Z,52.80
2022-07-28T15:43:00.583Z,51.40
2022-07-28T15:58:05.044Z,50.90
2022-07-28T16:13:09.944Z,50.90
2022-07-28T16:28:14.750Z,50.30
2022-07-28T16:43:19.278Z,48.10
2022-07-28T16:58:23.710Z,43.50
2022-07-28T17:13:28.165Z,48.20
2022-07-28T17:28:32.884Z,46.80
2022-07-28T17:43:42.261Z,49.00
2022-07-28T17:58:49.715Z,46.70
2022-07-28T18:14:03.974Z,48.90
2022-07-28T18:29:09.578Z,49.00
2022-07-28T18:44:14.375Z,51.80
2022-07-28T18:59:19.154Z,51.40
2022-07-28T19:14:23.617Z,50.30
2022-07-28T19:29:28.024Z,51.20
2022-07-28T19:44:32.701Z,50.50
2022-07-28T19:59:37.139Z,51.10
2022-07-28T20:14:41.594Z,52.00
2022-07-28T20:29:46.082Z,51.60
2022-07-28T20:44:51.306Z,51.80
2022-07-28T20:59:55.710Z,51.70
2022-07-28T21:15:00.114Z,52.40
2022-07-28T21:30:05.565Z,52.70
2022-07-28T21:45:11.407Z,53.10
2022-07-28T22:00:21.608Z,53.30
2022-07-28T22:15:25.985Z,53.50
2022-07-28T22:30:30.427Z,54.00
2022-07-28T22:45:50.028Z,54.20
2022-07-28T23:00:56.063Z,54.60
2022-07-28T23:16:00.925Z,55.20
2022-07-28T23:31:05.801Z,55.20
2022-07-28T23:46:10.922Z,56.50
